Time;durP1;ratioP1;P1;durP2;ratioP2;P2;SDS_P1;SDS_P2;PMS_P1;PMS_P2;Temp;Humidity;BMP_temperature;BMP_pressure;BME280_temperature;BME280_humidity;BME280_pressure;Samples;Min_cycle;Max_cycle;Signal;HPM_P1;HPM_P2
2021/03/25 00:01:52;;;;;;;60.10;32.03;;;8.90;99.90;;;;;;4956276;29;20834;-47
2021/03/25 00:04:20;;;;;;;60.73;31.40;;;8.90;99.90;;;;;;4955758;29;20460;-47
2021/03/25 00:06:52;;;;;;;56.80;32.90;;;8.90;99.90;;;;;;4955692;29;20827;-48
2021/03/25 00:09:24;;;;;;;52.40;29.27;;;8.90;99.90;;;;;;4955096;28;20789;-50
2021/03/25 00:11:53;;;;;;;66.27;31.93;;;8.90;99.90;;;;;;4942339;29;20889;-48
2021/03/25 00:14:22;;;;;;;53.73;28.93;;;8.90;99.90;;;;;;4936490;29;20944;-47
2021/03/25 00:16:51;;;;;;;58.70;29.20;;;8.90;99.90;;;;;;4936582;29;20846;-46
2021/03/25 00:19:21;;;;;;;49.83;29.10;;;8.90;99.90;;;;;;4936645;29;20840;-48
2021/03/25 00:21:49;;;;;;;57.97;30.50;;;8.90;99.90;;;;;;4936597;29;20539;-48
2021/03/25 00:24:19;;;;;;;58.17;33.70;;;8.90;99.90;;;;;;4936068;29;20559;-47
2021/03/25 00:26:49;;;;;;;55.87;31.30;;;8.90;99.90;;;;;;4936194;29;20484;-49
2021/03/25 00:29:18;;;;;;;64.10;30.53;;;8.80;99.90;;;;;;4936300;29;20794;-44
2021/03/25 00:31:47;;;;;;;56.13;30.27;;;8.80;99.90;;;;;;4936363;29;20461;-46
2021/03/25 00:34:16;;;;;;;64.67;31.53;;;8.70;99.90;;;;;;4936254;29;20815;-48
2021/03/25 00:36:44;;;;;;;61.23;33.27;;;8.70;99.90;;;;;;4935902;29;20871;-46
2021/03/25 00:39:14;;;;;;;59.03;29.07;;;8.70;99.90;;;;;;4936331;29;20484;-47
2021/03/25 00:41:42;;;;;;;55.33;30.13;;;8.70;99.90;;;;;;4936329;29;20807;-54
2021/03/25 00:44:14;;;;;;;58.07;31.77;;;8.60;99.90;;;;;;4936086;29;20473;-55
2021/03/25 00:46:43;;;;;;;64.07;30.53;;;8.60;99.90;;;;;;4936302;29;20832;-47
2021/03/25 00:49:12;;;;;;;59.43;30.57;;;8.70;99.90;;;;;;4935758;29;20825;-49
2021/03/25 00:51:41;;;;;;;56.40;27.93;;;8.60;99.90;;;;;;4935954;29;20683;-47
2021/03/25 00:54:09;;;;;;;57.03;29.43;;;8.60;99.90;;;;;;4936362;29;20842;-47
2021/03/25 00:56:38;;;;;;;52.47;27.77;;;8.60;99.90;;;;;;4936166;29;20794;-44
2021/03/25 00:59:06;;;;;;;53.57;29.73;;;8.50;99.90;;;;;;4935922;29;20802;-48
2021/03/25 01:01:36;;;;;;;60.07;30.37;;;8.50;99.90;;;;;;4935787;29;20795;-46
2021/03/25 01:04:05;;;;;;;59.90;28.93;;;8.40;99.90;;;;;;4935824;29;20830;-47
2021/03/25 01:06:33;;;;;;;66.70;32.70;;;8.40;99.90;;;;;;4935740;29;20797;-45
2021/03/25 01:09:02;;;;;;;57.13;30.67;;;8.40;99.90;;;;;;4935965;29;20810;-47
2021/03/25 01:11:31;;;;;;;56.50;28.17;;;8.30;99.90;;;;;;4935647;29;20830;-53
2021/03/25 01:14:01;;;;;;;56.37;29.60;;;8.30;99.90;;;;;;4935707;29;20814;-46
2021/03/25 01:16:32;;;;;;;60.50;33.40;;;8.30;99.90;;;;;;4935995;29;20925;-50
2021/03/25 01:19:04;;;;;;;49.30;29.83;;;8.20;99.90;;;;;;4935906;29;20849;-48
2021/03/25 01:21:33;;;;;;;51.57;30.00;;;8.20;99.90;;;;;;4923325;29;20856;-53
2021/03/25 01:24:01;;;;;;;56.60;29.30;;;8.10;99.90;;;;;;4920868;29;20461;-48
2021/03/25 01:26:29;;;;;;;62.70;31.73;;;8.10;99.90;;;;;;4920575;29;20909;-48
2021/03/25 01:29:00;;;;;;;61.47;29.13;;;8.10;99.90;;;;;;4920279;29;20485;-48
2021/03/25 01:31:28;;;;;;;61.00;30.57;;;8.10;99.90;;;;;;4920581;29;20441;-50
2021/03/25 01:33:56;;;;;;;61.93;31.67;;;8.00;99.90;;;;;;4920521;29;20803;-45
2021/03/25 01:36:26;;;;;;;62.10;29.80;;;8.00;99.90;;;;;;4920263;29;20559;-51
2021/03/25 01:38:55;;;;;;;60.57;29.80;;;8.00;99.90;;;;;;4920390;29;20794;-46
2021/03/25 01:41:24;;;;;;;63.10;28.97;;;8.00;99.90;;;;;;4919777;29;21015;-49
2021/03/25 01:43:53;;;;;;;63.53;30.57;;;7.90;99.90;;;;;;4920263;29;20825;-48
2021/03/25 01:46:26;;;;;;;55.77;30.03;;;7.90;99.90;;;;;;4920287;29;20892;-46
2021/03/25 01:48:56;;;;;;;62.30;28.70;;;7.80;99.90;;;;;;4920313;29;20808;-49
2021/03/25 01:51:39;;;;;;;59.83;31.10;;;7.80;99.90;;;;;;4919781;29;20461;-52
2021/03/25 01:54:46;;;;;;;56.70;29.47;;;7.80;99.90;;;;;;4919739;29;20928;-49
2021/03/25 01:57:52;;;;;;;58.60;30.97;;;7.70;99.90;;;;;;4919996;29;20794;-49
2021/03/25 02:00:29;;;;;;;54.23;28.77;;;7.70;99.90;;;;;;4911899;29;20776;-46
2021/03/25 02:03:19;;;;;;;56.30;30.73;;;7.60;99.90;;;;;;4919660;29;20817;-48
2021/03/25 02:05:55;;;;;;;59.80;30.27;;;7.60;99.90;;;;;;4919959;29;20909;-48
2021/03/25 02:08:34;;;;;;;55.77;30.13;;;7.60;99.90;;;;;;4919753;29;20838;-49
2021/03/25 02:11:11;;;;;;;56.47;29.30;;;7.50;99.90;;;;;;4919667;29;20867;-48
2021/03/25 02:13:45;;;;;;;58.73;28.23;;;7.50;99.90;;;;;;4919659;29;20980;-50
2021/03/25 02:16:20;;;;;;;58.97;26.20;;;7.50;99.90;;;;;;4919716;29;20847;-47
2021/03/25 02:18:58;;;;;;;69.73;31.23;;;7.50;99.90;;;;;;4919724;29;20829;-45
2021/03/25 02:21:49;;;;;;;57.10;29.30;;;7.40;99.90;;;;;;4920010;29;20483;-45
2021/03/25 02:24:36;;;;;;;54.17;28.87;;;7.40;99.90;;;;;;4919633;29;20465;-48
2021/03/25 02:27:23;;;;;;;69.27;31.20;;;7.40;99.90;;;;;;4919198;29;20557;-51
2021/03/25 02:29:57;;;;;;;55.53;28.60;;;7.40;99.90;;;;;;4919200;29;20520;-46
2021/03/25 02:32:29;;;;;;;61.13;31.30;;;7.40;99.90;;;;;;4918751;29;20490;-49
2021/03/25 02:35:05;;;;;;;63.33;31.10;;;7.40;99.90;;;;;;4919455;29;20776;-45
2021/03/25 02:37:38;;;;;;;58.43;31.20;;;7.40;99.90;;;;;;4919334;29;20841;-48
2021/03/25 02:40:13;;;;;;;66.50;34.47;;;7.40;99.90;;;;;;4919046;29;21002;-49
2021/03/25 02:42:46;;;;;;;52.77;27.60;;;7.40;99.90;;;;;;4919332;29;20790;-49
2021/03/25 02:45:20;;;;;;;55.63;28.63;;;7.30;99.90;;;;;;4919465;29;20773;-52
2021/03/25 02:47:55;;;;;;;58.30;28.43;;;7.40;99.90;;;;;;4919202;29;20831;-45
2021/03/25 02:50:29;;;;;;;64.93;29.77;;;7.40;99.90;;;;;;4918861;29;20488;-50
2021/03/25 02:53:03;;;;;;;56.83;30.03;;;7.40;99.90;;;;;;4919204;29;20815;-51
2021/03/25 02:55:31;;;;;;;60.10;30.10;;;7.40;99.90;;;;;;4918847;29;20822;-47
2021/03/25 02:58:04;;;;;;;52.50;28.13;;;7.30;99.90;;;;;;4918886;29;20800;-46
2021/03/25 03:00:38;;;;;;;57.37;27.70;;;7.30;99.90;;;;;;4919716;29;20826;-48
2021/03/25 03:03:11;;;;;;;61.80;30.30;;;7.30;99.90;;;;;;4919030;29;20839;-47
2021/03/25 03:05:42;;;;;;;53.80;29.23;;;7.30;99.90;;;;;;4919094;29;20832;-49
2021/03/25 03:08:15;;;;;;;55.43;27.07;;;7.30;99.90;;;;;;4918951;29;20901;-46
2021/03/25 03:10:48;;;;;;;64.33;32.00;;;7.20;99.90;;;;;;4918483;29;20908;-47
2021/03/25 03:13:18;;;;;;;59.57;29.70;;;7.20;99.90;;;;;;4918879;29;20854;-46
2021/03/25 03:15:50;;;;;;;66.23;29.20;;;7.20;99.90;;;;;;4918899;29;20843;-48
2021/03/25 03:18:27;;;;;;;65.27;30.20;;;7.20;99.90;;;;;;4918779;29;20781;-47
2021/03/25 03:20:59;;;;;;;58.80;29.03;;;7.10;99.90;;;;;;4921888;29;20865;-47
2021/03/25 05:22:59;;;;;;;57.17;30.17;;;6.30;99.90;;;;;;5972022;23;20408;31
2021/03/25 05:25:33;;;;;;;58.33;28.00;;;6.30;99.90;;;;;;4928007;29;20545;-49
2021/03/25 05:28:06;;;;;;;80.07;31.80;;;6.30;99.90;;;;;;4926223;29;20835;-45
2021/03/25 05:30:39;;;;;;;65.63;30.47;;;6.30;99.90;;;;;;4924207;29;20478;-47
2021/03/25 05:33:10;;;;;;;63.30;29.23;;;6.30;99.90;;;;;;4924661;29;20830;-48
2021/03/25 05:35:42;;;;;;;68.43;32.73;;;6.30;99.90;;;;;;4926021;29;20474;-46
2021/03/25 05:38:10;;;;;;;57.97;28.90;;;6.30;99.90;;;;;;4925665;29;20998;-48
2021/03/25 05:40:41;;;;;;;67.80;31.20;;;6.30;99.90;;;;;;4929127;29;20461;-47
2021/03/25 05:43:56;;;;;;;66.10;28.87;;;6.30;99.90;;;;;;4924737;29;20528;-45
2021/03/25 05:46:33;;;;;;;63.87;31.63;;;6.40;99.90;;;;;;4848588;29;20813;-46
2021/03/25 05:49:17;;;;;;;60.93;28.97;;;6.40;99.90;;;;;;4923092;29;20488;-48
2021/03/25 05:51:56;;;;;;;56.93;29.67;;;6.40;99.90;;;;;;4929090;29;20830;-44
2021/03/25 05:54:53;;;;;;;63.80;33.47;;;6.40;99.90;;;;;;4927984;29;20468;-50
2021/03/25 05:57:28;;;;;;;62.00;29.57;;;6.40;99.90;;;;;;4927158;29;20927;-47
2021/03/25 06:00:02;;;;;;;63.07;30.97;;;6.50;99.90;;;;;;4927801;29;20782;-51
2021/03/25 06:02:38;;;;;;;59.50;30.10;;;6.50;99.90;;;;;;4936004;29;20691;-47
2021/03/25 06:05:10;;;;;;;64.57;32.07;;;6.60;99.90;;;;;;4936333;29;20459;-45
2021/03/25 06:08:17;;;;;;;54.03;28.03;;;6.60;99.90;;;;;;4929684;29;20812;-51
2021/03/25 06:11:01;;;;;;;62.80;30.30;;;6.70;99.90;;;;;;4929763;29;20836;-49
2021/03/25 06:13:46;;;;;;;64.17;29.10;;;6.70;99.90;;;;;;4936345;29;20470;-51
2021/03/25 06:16:48;;;;;;;63.77;29.80;;;6.80;99.90;;;;;;4935761;29;20460;-62
2021/03/25 06:19:41;;;;;;;57.33;31.63;;;6.90;99.90;;;;;;4921056;29;20671;-63
2021/03/25 06:22:16;;;;;;;57.20;27.17;;;7.00;99.90;;;;;;4941572;29;20851;-63
2021/03/25 06:25:09;;;;;;;57.83;29.80;;;7.00;99.90;;;;;;4942266;29;20908;-63
2021/03/25 06:27:58;;;;;;;57.90;30.07;;;7.20;99.90;;;;;;4940711;29;20782;-64
2021/03/25 06:30:31;;;;;;;65.47;29.63;;;7.30;99.90;;;;;;4941863;29;20937;-64
2021/03/25 06:33:02;;;;;;;55.73;28.50;;;7.30;99.90;;;;;;4941967;29;20826;-64
2021/03/25 06:35:35;;;;;;;68.30;30.50;;;7.30;99.90;;;;;;4918113;29;20462;-62
2021/03/25 06:38:07;;;;;;;61.83;30.20;;;7.40;99.90;;;;;;4935763;29;20437;-62
2021/03/25 06:40:42;;;;;;;64.67;30.20;;;7.40;99.90;;;;;;4944528;29;20496;-62
2021/03/25 06:43:21;;;;;;;66.73;30.07;;;7.40;99.90;;;;;;4946494;29;20468;-62
2021/03/25 06:45:54;;;;;;;61.53;29.93;;;7.50;99.90;;;;;;4946911;29;20486;-61
2021/03/25 06:48:35;;;;;;;67.70;30.03;;;7.60;99.90;;;;;;4946334;29;20765;-61
2021/03/25 06:51:16;;;;;;;61.93;27.90;;;7.60;99.90;;;;;;4945726;29;20957;-61
2021/03/25 06:53:43;;;;;;;62.27;30.07;;;7.60;99.90;;;;;;4945174;29;20465;-62
2021/03/25 06:56:15;;;;;;;62.63;28.60;;;7.60;99.90;;;;;;4943204;29;20527;-63
2021/03/25 06:58:50;;;;;;;67.90;30.70;;;7.60;99.90;;;;;;4939409;29;20468;-63
2021/03/25 07:01:27;;;;;;;55.80;31.80;;;7.70;99.90;;;;;;4939191;29;20780;-62
2021/03/25 07:03:58;;;;;;;71.83;32.07;;;7.70;99.90;;;;;;4939019;29;20809;-62
2021/03/25 07:06:30;;;;;;;53.30;28.90;;;7.80;99.90;;;;;;4939009;29;20841;-62
2021/03/25 07:08:59;;;;;;;57.87;29.07;;;7.90;99.90;;;;;;4939677;29;20479;-63
2021/03/25 07:11:29;;;;;;;59.37;31.10;;;7.70;99.90;;;;;;4940530;29;20787;-61
2021/03/25 07:14:05;;;;;;;69.20;32.37;;;7.70;99.90;;;;;;4941572;29;20487;-62
2021/03/25 07:16:38;;;;;;;73.37;32.80;;;7.60;99.90;;;;;;4941376;29;20478;-62
2021/03/25 07:19:11;;;;;;;57.57;29.87;;;7.70;99.90;;;;;;4941830;29;20453;-62
2021/03/25 07:21:42;;;;;;;61.37;27.33;;;7.70;99.90;;;;;;4941476;29;20840;-62
2021/03/25 07:24:12;;;;;;;55.40;27.73;;;7.90;99.90;;;;;;4941224;29;20860;-62
2021/03/25 07:26:44;;;;;;;61.40;30.70;;;8.00;99.90;;;;;;4940483;29;20468;-62
2021/03/25 07:29:34;;;;;;;64.53;31.07;;;8.20;99.90;;;;;;4940079;29;20966;-61
2021/03/25 07:32:31;;;;;;;62.17;31.00;;;8.40;99.90;;;;;;4940354;29;20436;-61
2021/03/25 07:35:11;;;;;;;49.47;28.77;;;8.50;99.90;;;;;;4929748;29;20459;-62
2021/03/25 07:37:42;;;;;;;59.40;25.73;;;8.70;99.90;;;;;;4939834;29;20470;-62
2021/03/25 07:40:30;;;;;;;50.53;27.07;;;8.80;99.90;;;;;;4939351;29;20809;-63
2021/03/25 07:43:15;;;;;;;66.33;31.93;;;9.00;99.90;;;;;;4939335;29;20782;-62
2021/03/25 07:45:45;;;;;;;56.80;26.27;;;9.10;99.90;;;;;;4939302;29;20432;-63
2021/03/25 07:48:21;;;;;;;54.90;28.57;;;9.30;99.90;;;;;;4938209;29;20786;-62
2021/03/25 07:50:51;;;;;;;53.80;26.30;;;9.50;99.90;;;;;;4939373;29;20825;-62
2021/03/25 07:53:25;;;;;;;53.00;26.50;;;9.70;99.90;;;;;;4939267;29;20527;-63
2021/03/25 07:56:07;;;;;;;54.13;28.80;;;9.80;99.90;;;;;;4939012;29;20788;-62
2021/03/25 07:58:39;;;;;;;57.40;30.43;;;9.90;99.90;;;;;;4940119;29;20817;-63
2021/03/25 08:01:14;;;;;;;55.97;27.70;;;10.10;99.90;;;;;;4939408;29;20803;-61
2021/03/25 08:03:50;;;;;;;62.13;30.57;;;10.30;99.90;;;;;;4939012;29;20436;-63
2021/03/25 08:06:26;;;;;;;58.47;31.07;;;10.40;99.90;;;;;;4939036;29;20877;-63
2021/03/25 08:09:07;;;;;;;57.90;30.13;;;10.60;99.90;;;;;;4938964;29;20809;-62
2021/03/25 08:11:50;;;;;;;58.60;31.77;;;10.60;99.90;;;;;;4939182;29;20547;-62
2021/03/25 08:14:24;;;;;;;59.00;31.00;;;10.70;99.90;;;;;;4938253;29;20787;-62
2021/03/25 08:16:56;;;;;;;58.27;30.60;;;10.90;99.90;;;;;;4938411;29;21019;-62
2021/03/25 08:19:40;;;;;;;48.73;30.30;;;11.00;99.90;;;;;;4929026;29;20772;-63
2021/03/25 08:22:37;;;;;;;56.00;29.30;;;11.30;99.90;;;;;;4923448;29;20791;-62
2021/03/25 08:43:24;;;;;;;57.03;31.87;;;21.30;81.10;;;;;;5903299;23;21255;-61
2021/03/25 08:45:56;;;;;;;48.90;30.03;;;22.60;68.80;;;;;;4929774;29;20787;-64
2021/03/25 08:48:27;;;;;;;50.50;32.83;;;23.50;60.10;;;;;;4926516;29;20953;-62
2021/03/25 08:51:03;;;;;;;56.53;34.43;;;24.10;56.90;;;;;;4925778;29;20907;-63
2021/03/25 08:53:43;;;;;;;44.73;31.83;;;24.60;53.60;;;;;;4925822;29;21657;-62
2021/03/25 08:56:30;;;;;;;51.67;34.83;;;24.80;52.60;;;;;;4920086;29;20812;-62
2021/03/25 08:59:03;;;;;;;49.03;33.93;;;25.00;51.30;;;;;;4919189;29;20808;-62
2021/03/25 09:01:41;;;;;;;55.27;34.87;;;25.10;50.10;;;;;;4917601;29;20511;-63
2021/03/25 09:04:12;;;;;;;48.13;35.47;;;24.90;49.30;;;;;;4924487;29;20848;-62
2021/03/25 09:06:43;;;;;;;48.40;34.53;;;24.90;49.10;;;;;;4927256;29;20779;-64
2021/03/25 09:09:30;;;;;;;48.47;34.10;;;25.00;49.00;;;;;;4926334;29;20945;-64
2021/03/25 09:11:59;;;;;;;51.33;34.83;;;24.60;49.10;;;;;;4926033;29;20854;-63
2021/03/25 09:14:30;;;;;;;55.87;34.93;;;24.30;49.60;;;;;;4927573;29;20784;-63
2021/03/25 09:17:04;;;;;;;52.43;36.57;;;23.90;49.70;;;;;;4925541;29;20782;-64
2021/03/25 09:19:39;;;;;;;47.83;32.80;;;23.50;50.40;;;;;;4922062;29;20947;-62
2021/03/25 09:22:08;;;;;;;51.67;33.13;;;23.10;51.40;;;;;;4923896;29;20804;-64
2021/03/25 09:24:56;;;;;;;42.97;30.73;;;23.10;51.00;;;;;;4924019;29;20842;-64
2021/03/25 09:27:54;;;;;;;56.43;33.13;;;23.00;51.90;;;;;;4927341;29;20756;-62
2021/03/25 09:30:33;;;;;;;56.60;34.53;;;22.80;51.20;;;;;;4926589;29;20850;-65
2021/03/25 09:33:37;;;;;;;53.47;33.83;;;22.70;51.50;;;;;;4924970;29;20895;-63
2021/03/25 09:36:44;;;;;;;52.83;35.67;;;22.80;51.40;;;;;;4924741;29;20788;-64
2021/03/25 09:39:31;;;;;;;58.77;32.77;;;21.80;52.20;;;;;;4903116;29;20788;-67
2021/03/25 09:42:02;;;;;;;57.20;31.60;;;20.60;54.60;;;;;;4926530;29;20787;-64
2021/03/25 09:44:41;;;;;;;58.00;32.20;;;20.00;56.00;;;;;;4939366;29;20771;-64
2021/03/25 09:47:30;;;;;;;52.33;31.80;;;20.00;56.40;;;;;;4945630;29;20838;-63
2021/03/25 09:50:18;;;;;;;59.43;35.00;;;20.30;56.10;;;;;;4947887;29;20498;-63
2021/03/25 09:55:25;;;;;;;55.27;31.90;;;21.60;54.40;;;;;;5652389;23;20860;-65
2021/03/25 09:57:55;;;;;;;55.40;33.47;;;22.30;53.80;;;;;;4986509;28;21040;-62
2021/03/25 10:00:56;;;;;;;51.40;33.37;;;22.80;53.00;;;;;;4984983;28;20903;-63
2021/03/25 10:04:03;;;;;;;52.97;33.23;;;23.40;52.20;;;;;;4985619;28;20824;-63
2021/03/25 10:06:58;;;;;;;47.63;32.80;;;23.70;51.30;;;;;;4984007;28;20903;-63
2021/03/25 10:10:01;;;;;;;51.40;35.50;;;23.60;50.30;;;;;;4983539;28;20474;-65
2021/03/25 10:12:53;;;;;;;56.10;32.47;;;23.60;50.40;;;;;;4985063;28;20767;-63
2021/03/25 10:15:43;;;;;;;61.67;36.00;;;23.50;50.30;;;;;;4981468;28;21898;-64
2021/03/25 10:18:13;;;;;;;52.80;34.63;;;23.60;50.30;;;;;;4968852;28;21139;-64
2021/03/25 10:20:57;;;;;;;49.00;33.47;;;23.60;49.90;;;;;;4986782;28;20778;-62
2021/03/25 10:23:29;;;;;;;49.30;32.43;;;23.60;50.30;;;;;;4987223;28;20559;-63
2021/03/25 10:26:10;;;;;;;44.07;30.20;;;23.50;50.00;;;;;;4986708;28;20472;-65
2021/03/25 10:28:44;;;;;;;48.97;32.07;;;23.10;50.40;;;;;;4985999;28;20782;-64
2021/03/25 10:31:19;;;;;;;57.10;31.37;;;23.00;50.00;;;;;;4982684;28;20777;-64
2021/03/25 10:33:49;;;;;;;57.47;34.73;;;23.00;50.20;;;;;;4982915;28;21088;-64
2021/03/25 10:36:20;;;;;;;57.87;34.43;;;23.10;50.90;;;;;;4985706;28;20749;-64
2021/03/25 10:38:56;;;;;;;48.27;30.67;;;23.30;50.60;;;;;;4976793;28;20792;-64
2021/03/25 10:41:26;;;;;;;49.87;32.73;;;23.40;50.30;;;;;;4976603;28;20462;-64
2021/03/25 10:43:54;;;;;;;47.43;32.80;;;23.10;50.20;;;;;;4976916;28;20913;-64
2021/03/25 10:46:33;;;;;;;52.00;31.50;;;22.70;50.40;;;;;;4996831;23;20939;-61
2021/03/25 10:49:09;;;;;;;48.43;33.20;;;22.10;51.90;;;;;;5061135;23;20809;-63
2021/03/25 10:51:42;;;;;;;48.97;31.80;;;21.80;51.90;;;;;;4976355;28;20757;-64
2021/03/25 10:54:30;;;;;;;47.83;30.60;;;21.20;52.60;;;;;;4976183;28;20856;-64
2021/03/25 10:57:11;;;;;;;50.87;30.67;;;20.50;53.50;;;;;;4979047;28;20446;-64
2021/03/25 10:59:49;;;;;;;50.50;30.30;;;19.90;54.90;;;;;;4985522;28;20792;-63
2021/03/25 11:02:23;;;;;;;49.87;29.27;;;19.40;55.60;;;;;;4982342;28;20483;-63
2021/03/25 11:05:02;;;;;;;48.00;29.63;;;18.90;56.80;;;;;;4981414;28;20461;-63
2021/03/25 11:07:38;;;;;;;50.07;29.30;;;18.60;58.00;;;;;;4977247;28;20463;-64
2021/03/25 11:10:20;;;;;;;45.97;28.50;;;18.10;58.30;;;;;;4978535;28;20860;-64
2021/03/25 11:12:55;;;;;;;47.83;29.77;;;17.90;59.50;;;;;;4956894;29;20985;-64
2021/03/25 11:15:29;;;;;;;47.50;29.13;;;17.80;59.40;;;;;;4969857;28;20787;-63
2021/03/25 11:17:58;;;;;;;48.10;28.33;;;17.80;59.70;;;;;;4995052;28;20909;-64
2021/03/25 11:20:29;;;;;;;44.90;26.67;;;17.70;60.80;;;;;;4995296;28;20826;-64
2021/03/25 11:22:58;;;;;;;50.97;28.27;;;17.80;59.60;;;;;;4994976;28;20854;-65
2021/03/25 11:25:31;;;;;;;43.13;27.10;;;17.80;59.80;;;;;;4995374;28;20816;-66
2021/03/25 11:28:05;;;;;;;41.83;26.80;;;17.90;60.70;;;;;;4995166;28;20795;-65
2021/03/25 11:30:37;;;;;;;46.70;28.10;;;17.90;59.80;;;;;;4995377;28;20807;-68
2021/03/25 11:33:35;;;;;;;47.93;28.20;;;17.80;59.70;;;;;;4995156;28;20822;-64
2021/03/25 11:36:06;;;;;;;44.53;26.50;;;17.70;60.80;;;;;;4995151;28;20811;-63
2021/03/25 11:38:38;;;;;;;42.90;26.10;;;17.70;61.00;;;;;;4995098;28;20446;-64
2021/03/25 11:41:09;;;;;;;40.20;24.90;;;17.80;61.50;;;;;;4995058;28;20438;-64
2021/03/25 11:43:50;;;;;;;39.57;25.77;;;18.00;61.40;;;;;;4995187;28;21094;-63
2021/03/25 11:46:30;;;;;;;42.97;25.30;;;18.10;59.70;;;;;;4994899;28;20794;-63
2021/03/25 11:49:09;;;;;;;48.37;27.33;;;18.20;59.90;;;;;;4994777;28;20962;-64
2021/03/25 11:51:40;;;;;;;45.97;26.87;;;18.00;60.30;;;;;;4990855;28;20842;-64
2021/03/25 11:54:51;;;;;;;42.97;28.00;;;18.10;61.30;;;;;;4972453;28;20746;-65
2021/03/25 11:57:29;;;;;;;45.57;26.70;;;18.20;60.10;;;;;;4975346;28;20793;-65
2021/03/25 12:00:10;;;;;;;39.63;23.07;;;18.00;59.60;;;;;;4956359;29;20801;-65
2021/03/25 12:02:39;;;;;;;42.27;24.27;;;17.80;59.90;;;;;;4956504;29;20815;-65
2021/03/25 12:05:44;;;;;;;40.53;22.70;;;17.80;59.70;;;;;;4954751;28;20460;-63
2021/03/25 12:08:30;;;;;;;39.37;24.73;;;17.70;59.50;;;;;;4860100;29;20934;-64
2021/03/25 12:11:01;;;;;;;40.47;23.80;;;17.60;59.20;;;;;;4951355;29;20969;-64
2021/03/25 12:13:32;;;;;;;39.50;23.67;;;17.60;59.40;;;;;;4954083;29;20778;-65
2021/03/25 12:16:01;;;;;;;42.63;25.67;;;17.70;59.20;;;;;;4955684;29;20952;-64
2021/03/25 12:18:33;;;;;;;48.20;25.67;;;17.60;59.70;;;;;;4956054;29;20771;-64
2021/03/25 12:21:06;;;;;;;42.10;26.57;;;17.70;59.80;;;;;;4956122;29;20809;-64
2021/03/25 12:23:36;;;;;;;38.80;21.33;;;17.80;60.20;;;;;;4968721;28;20906;-63
2021/03/25 12:26:13;;;;;;;36.00;21.13;;;17.70;58.90;;;;;;4973232;28;20927;-63
2021/03/25 12:28:43;;;;;;;37.20;22.63;;;17.80;59.30;;;;;;4973429;28;20608;-64
2021/03/25 12:31:17;;;;;;;36.40;20.60;;;17.80;58.90;;;;;;4974024;28;20850;-64
2021/03/25 12:33:49;;;;;;;37.27;22.40;;;17.90;59.10;;;;;;4974987;28;20436;-63
2021/03/25 12:36:19;;;;;;;36.10;22.30;;;18.00;59.70;;;;;;4975292;28;20895;-63
2021/03/25 12:38:48;;;;;;;39.30;22.90;;;18.10;58.90;;;;;;4974992;28;20866;-64
2021/03/25 12:41:20;;;;;;;38.07;21.83;;;18.10;58.60;;;;;;4974957;28;20778;-65
2021/03/25 12:43:50;;;;;;;43.57;23.30;;;18.10;59.10;;;;;;4974846;28;20878;-65
2021/03/25 12:46:19;;;;;;;45.67;23.77;;;18.10;59.60;;;;;;4975122;28;20485;-65
2021/03/25 12:48:48;;;;;;;35.70;22.67;;;18.10;57.70;;;;;;4974349;28;20869;-64
2021/03/25 12:51:16;;;;;;;33.27;20.40;;;17.90;58.00;;;;;;4974707;28;20805;-64
2021/03/25 12:53:46;;;;;;;42.73;21.37;;;17.70;57.90;;;;;;4974597;28;20781;-64
2021/03/25 12:56:17;;;;;;;42.10;23.10;;;17.70;58.40;;;;;;4974946;28;20774;-64
2021/03/25 12:58:46;;;;;;;31.60;19.77;;;17.50;58.30;;;;;;4974801;28;20754;-64
2021/03/25 13:01:18;;;;;;;39.30;23.83;;;17.50;57.90;;;;;;4974303;28;20879;-65
2021/03/25 13:03:48;;;;;;;39.20;22.70;;;17.50;57.60;;;;;;4974934;28;20811;-64
2021/03/25 13:06:18;;;;;;;38.57;20.23;;;17.50;57.90;;;;;;4974960;28;20745;-62
2021/03/25 13:08:47;;;;;;;32.40;20.80;;;17.30;58.80;;;;;;4974845;28;20851;-64
2021/03/25 13:11:18;;;;;;;38.47;21.73;;;17.30;58.40;;;;;;4974669;28;20998;-65
2021/03/25 13:13:47;;;;;;;36.37;20.60;;;17.30;58.90;;;;;;4975233;28;20465;-64
2021/03/25 13:16:17;;;;;;;38.27;23.47;;;17.20;59.40;;;;;;4975917;28;20815;-65
2021/03/25 13:18:46;;;;;;;36.87;22.37;;;17.10;59.20;;;;;;4978494;28;20783;-63
2021/03/25 13:21:15;;;;;;;44.17;25.40;;;17.20;59.90;;;;;;4978265;28;20912;-64
2021/03/25 13:23:43;;;;;;;37.27;21.47;;;17.20;59.30;;;;;;4978482;28;20454;-63
2021/03/25 13:26:12;;;;;;;32.30;21.70;;;17.20;59.30;;;;;;4978017;28;20466;-64
2021/03/25 13:28:42;;;;;;;33.50;21.60;;;17.30;58.80;;;;;;4978489;28;20771;-63
2021/03/25 13:31:11;;;;;;;36.27;23.70;;;17.40;59.10;;;;;;4978210;28;20839;-64
2021/03/25 13:33:41;;;;;;;39.40;23.33;;;17.50;59.40;;;;;;4978098;28;20812;-63
2021/03/25 13:36:10;;;;;;;37.93;21.03;;;17.60;60.10;;;;;;4976007;28;20980;-63
2021/03/25 13:38:38;;;;;;;37.80;22.30;;;17.60;59.80;;;;;;4967944;28;20925;-63
2021/03/25 13:41:08;;;;;;;40.40;25.10;;;17.60;60.00;;;;;;4960528;29;20805;-63
2021/03/25 13:43:37;;;;;;;35.90;22.10;;;17.60;59.30;;;;;;4959996;29;20950;-63
2021/03/25 13:46:06;;;;;;;37.93;20.43;;;17.40;59.50;;;;;;4962498;28;20782;-63
2021/03/25 14:14:29;;;;;;;37.60;21.80;;;17.50;59.00;;;;;;5284773;23;21050;-63
2021/03/25 14:16:57;;;;;;;33.60;21.73;;;17.50;58.90;;;;;;4976679;28;20943;-63
2021/03/25 14:19:25;;;;;;;32.73;21.23;;;17.50;59.10;;;;;;4975881;28;20835;-64
2021/03/25 14:21:54;;;;;;;35.97;23.40;;;17.60;59.10;;;;;;4973943;28;20459;-64
2021/03/25 14:24:22;;;;;;;38.23;23.13;;;17.80;59.40;;;;;;4983521;28;20548;-65
2021/03/25 14:26:50;;;;;;;40.23;22.37;;;17.70;59.30;;;;;;4985486;28;20929;-63
2021/03/25 14:29:19;;;;;;;39.17;23.47;;;17.80;59.40;;;;;;4986011;28;20810;-63
2021/03/25 14:31:48;;;;;;;39.20;21.90;;;17.90;59.00;;;;;;4986880;28;20680;-65
2021/03/25 14:34:17;;;;;;;37.80;24.33;;;17.60;58.70;;;;;;4986792;28;20753;-63
2021/03/25 14:36:45;;;;;;;41.23;24.73;;;17.30;59.20;;;;;;4981144;28;20463;-64
2021/03/25 14:39:13;;;;;;;31.23;21.10;;;17.10;59.80;;;;;;4976734;28;20443;-66
2021/03/25 14:41:42;;;;;;;35.13;23.27;;;17.10;60.50;;;;;;4987107;28;20962;-63
2021/03/25 14:44:10;;;;;;;36.90;23.13;;;17.20;61.10;;;;;;4984895;28;20852;-63
2021/03/25 14:46:39;;;;;;;39.73;24.47;;;17.20;61.30;;;;;;4983866;28;20799;-63
2021/03/25 14:49:09;;;;;;;36.93;23.57;;;17.30;61.00;;;;;;4984683;28;20745;-66
2021/03/25 14:51:40;;;;;;;33.43;22.13;;;17.30;59.60;;;;;;4986568;28;20488;-64
2021/03/25 14:54:10;;;;;;;40.30;22.33;;;17.20;60.70;;;;;;4982658;28;20978;-63
2021/03/25 14:56:38;;;;;;;38.00;22.57;;;17.10;61.00;;;;;;4986136;28;20526;-64
2021/03/25 14:59:06;;;;;;;42.80;24.10;;;17.20;60.70;;;;;;4976274;28;20467;-63
2021/03/25 15:01:34;;;;;;;33.33;21.20;;;17.20;61.20;;;;;;4979711;28;20780;-63
2021/03/25 15:04:03;;;;;;;35.07;22.90;;;17.20;60.90;;;;;;4982567;28;20916;-64
2021/03/25 15:06:34;;;;;;;42.87;24.03;;;17.20;61.00;;;;;;4978790;28;20765;-64
2021/03/25 15:09:03;;;;;;;41.73;26.77;;;17.30;61.60;;;;;;4982799;28;20880;-65
2021/03/25 15:11:35;;;;;;;36.67;23.17;;;17.20;61.30;;;;;;4979351;28;20565;-64
2021/03/25 15:14:04;;;;;;;35.70;24.33;;;17.10;61.70;;;;;;4980442;28;21028;-65
2021/03/25 15:16:33;;;;;;;42.50;24.20;;;17.00;62.30;;;;;;4987269;28;20471;-63
2021/03/25 15:19:01;;;;;;;43.03;23.30;;;17.10;62.70;;;;;;4988182;28;20854;-64
2021/03/25 15:21:29;;;;;;;38.90;22.27;;;17.20;63.10;;;;;;4988096;28;20541;-64
2021/03/25 15:23:59;;;;;;;36.93;23.17;;;17.20;62.70;;;;;;4980894;28;20789;-63
2021/03/25 15:26:28;;;;;;;37.67;23.13;;;17.20;62.60;;;;;;4979321;28;20769;-65
2021/03/25 15:28:56;;;;;;;44.27;23.33;;;17.20;62.70;;;;;;4987347;28;20476;-64
2021/03/25 15:31:26;;;;;;;33.43;21.17;;;17.20;62.50;;;;;;4988149;28;20971;-64
2021/03/25 15:33:54;;;;;;;34.80;22.10;;;17.20;63.30;;;;;;4989693;28;20780;-65
2021/03/25 15:36:22;;;;;;;33.53;22.80;;;17.20;62.80;;;;;;4985965;28;20457;-63
2021/03/25 15:38:52;;;;;;;40.13;22.77;;;17.10;62.30;;;;;;4992094;28;20992;-64
2021/03/25 15:41:24;;;;;;;40.83;24.00;;;17.00;62.80;;;;;;4978002;28;20461;-64
2021/03/25 15:43:54;;;;;;;36.10;24.60;;;17.00;63.50;;;;;;4995606;28;20755;-63
2021/03/25 15:46:22;;;;;;;42.63;25.80;;;16.90;64.00;;;;;;4992882;28;20442;-64
2021/03/25 15:48:50;;;;;;;40.30;20.90;;;16.80;64.00;;;;;;4994321;28;20925;-64
2021/03/25 15:51:19;;;;;;;43.20;24.90;;;16.80;64.50;;;;;;4995127;28;20746;-64
2021/03/25 15:53:49;;;;;;;36.83;24.57;;;16.80;64.50;;;;;;4990110;28;20791;-65
2021/03/25 15:56:18;;;;;;;34.97;22.00;;;16.60;63.60;;;;;;4991353;28;20449;-63